Time;durP1;ratioP1;P1;durP2;ratioP2;P2;SDS_P1;SDS_P2;PMS_P1;PMS_P2;Temp;Humidity;BMP_temperature;BMP_pressure;BME280_temperature;BME280_humidity;BME280_pressure;Samples;Min_cycle;Max_cycle;Signal;HPM_P1;HPM_P2
2021/08/02 00:01:59;;;;;;;6.53;4.03;;;;;;;;;;4920938;29;20020;-84
2021/08/02 00:04:28;;;;;;;8.38;4.30;;;;;;;;;;4920961;29;20411;-82
2021/08/02 00:06:58;;;;;;;5.03;4.53;;;;;;;;;;4904210;29;20032;-85
2021/08/02 00:09:25;;;;;;;9.20;4.07;;;;;;;;;;4904042;29;20044;-81
2021/08/02 00:12:03;;;;;;;5.32;4.05;;;;;;;;;;4920808;29;20115;-82
2021/08/02 00:14:29;;;;;;;6.32;3.80;;;;;;;;;;4920836;29;20062;-81
2021/08/02 00:16:56;;;;;;;7.07;4.15;;;;;;;;;;4920548;29;20056;-82
2021/08/02 00:19:22;;;;;;;7.43;3.90;;;;;;;;;;4920596;29;20055;-82
2021/08/02 00:21:48;;;;;;;7.13;4.35;;;;;;;;;;4920651;29;20024;-82
2021/08/02 00:24:15;;;;;;;7.13;3.88;;;;;;;;;;4920557;29;20420;-81
2021/08/02 00:26:42;;;;;;;8.38;3.75;;;;;;;;;;4920638;29;20063;-82
2021/08/02 00:29:08;;;;;;;12.55;4.30;;;;;;;;;;4903943;29;20056;-82
2021/08/02 00:31:35;;;;;;;5.28;3.70;;;;;;;;;;4903806;29;20056;-82
2021/08/02 00:34:01;;;;;;;8.75;4.13;;;;;;;;;;4920639;29;20111;-82
2021/08/02 00:36:27;;;;;;;7.97;4.25;;;;;;;;;;4920661;29;20032;-82
2021/08/02 00:39:02;;;;;;;8.18;4.15;;;;;;;;;;4903729;29;20032;-84
2021/08/02 00:41:38;;;;;;;5.95;4.13;;;;;;;;;;4924648;29;20053;-83
2021/08/02 00:44:22;;;;;;;5.93;4.53;;;;;;;;;;4924787;29;20043;-83
2021/08/02 00:46:52;;;;;;;10.13;4.70;;;;;;;;;;4924307;29;20052;-82
2021/08/02 00:49:19;;;;;;;7.43;4.63;;;;;;;;;;4924380;29;20079;-83
2021/08/02 00:51:47;;;;;;;9.07;4.50;;;;;;;;;;4907549;29;20397;-83
2021/08/02 00:54:14;;;;;;;7.75;4.72;;;;;;;;;;4924170;29;20399;-83
2021/08/02 00:56:41;;;;;;;7.82;4.75;;;;;;;;;;4924178;29;20032;-83
2021/08/02 00:59:08;;;;;;;7.45;4.50;;;;;;;;;;4907317;29;20418;-83
2021/08/02 01:01:36;;;;;;;5.80;4.45;;;;;;;;;;4924239;29;20024;-83
2021/08/02 01:04:03;;;;;;;7.07;4.55;;;;;;;;;;4924126;29;20048;-82
2021/08/02 01:06:30;;;;;;;7.60;4.75;;;;;;;;;;4907312;29;20423;-83
2021/08/02 01:08:59;;;;;;;8.73;5.07;;;;;;;;;;4924349;29;20032;-83
2021/08/02 01:11:25;;;;;;;6.10;4.97;;;;;;;;;;4907097;29;20070;-83
2021/08/02 01:13:51;;;;;;;5.80;4.40;;;;;;;;;;4907098;29;20036;-82
2021/08/02 01:16:18;;;;;;;8.48;5.30;;;;;;;;;;4906800;29;20024;-82
2021/08/02 01:18:46;;;;;;;8.13;5.20;;;;;;;;;;4923560;29;20035;-82
2021/08/02 01:21:15;;;;;;;7.60;4.97;;;;;;;;;;4923731;29;20035;-82
2021/08/02 01:23:43;;;;;;;9.65;5.43;;;;;;;;;;4907329;29;20028;-82
2021/08/02 01:26:28;;;;;;;8.57;5.22;;;;;;;;;;4923508;29;20418;-81
2021/08/02 01:29:12;;;;;;;8.32;5.03;;;;;;;;;;4923499;29;20032;-83
2021/08/02 01:31:38;;;;;;;7.13;5.68;;;;;;;;;;4923744;29;20028;-82
2021/08/02 01:34:05;;;;;;;7.95;5.10;;;;;;;;;;4923491;29;20106;-82
2021/08/02 01:36:31;;;;;;;6.72;5.60;;;;;;;;;;4923483;29;20035;-82
2021/08/02 01:38:57;;;;;;;7.90;5.35;;;;;;;;;;4923302;29;20066;-82
2021/08/02 01:41:24;;;;;;;7.22;5.72;;;;;;;;;;4906639;29;20028;-82
2021/08/02 01:43:50;;;;;;;6.43;5.15;;;;;;;;;;4923253;29;20024;-82
2021/08/02 01:46:30;;;;;;;7.35;5.43;;;;;;;;;;4923203;29;20024;-82
2021/08/02 01:49:15;;;;;;;5.90;5.30;;;;;;;;;;4923246;29;20051;-82
2021/08/02 01:51:46;;;;;;;8.63;5.65;;;;;;;;;;4922635;29;20124;-82
2021/08/02 01:54:18;;;;;;;7.80;5.05;;;;;;;;;;4923028;29;20355;-82
2021/08/02 01:56:49;;;;;;;7.30;4.82;;;;;;;;;;4923421;29;20029;-82
2021/08/02 01:59:16;;;;;;;6.85;4.70;;;;;;;;;;4923360;29;20036;-83
2021/08/02 02:01:46;;;;;;;6.45;4.72;;;;;;;;;;4923303;29;20036;-84
2021/08/02 02:04:12;;;;;;;5.78;4.15;;;;;;;;;;4922979;29;20437;-83
2021/08/02 02:06:40;;;;;;;5.20;4.45;;;;;;;;;;4906228;29;20028;-82
2021/08/02 02:09:11;;;;;;;6.75;4.38;;;;;;;;;;4923262;29;20111;-83
2021/08/02 02:11:42;;;;;;;7.13;4.28;;;;;;;;;;4922965;29;20429;-83
2021/08/02 02:14:10;;;;;;;5.13;3.70;;;;;;;;;;4923114;29;20075;-86
2021/08/02 02:16:37;;;;;;;4.93;4.03;;;;;;;;;;4906360;29;20067;-86
2021/08/02 02:19:05;;;;;;;5.32;4.30;;;;;;;;;;4923204;29;20036;-85
2021/08/02 02:21:32;;;;;;;6.82;4.20;;;;;;;;;;4922996;29;20028;-85
2021/08/02 02:23:58;;;;;;;5.85;4.32;;;;;;;;;;4923259;29;20044;-85
2021/08/02 02:26:27;;;;;;;5.35;4.20;;;;;;;;;;4922687;29;20031;-82
2021/08/02 02:28:53;;;;;;;5.15;4.03;;;;;;;;;;4922715;29;20039;-82
2021/08/02 02:31:20;;;;;;;5.28;4.30;;;;;;;;;;4922761;29;20032;-83
2021/08/02 02:33:48;;;;;;;6.28;4.82;;;;;;;;;;4922404;29;20020;-82
2021/08/02 02:36:15;;;;;;;5.20;4.35;;;;;;;;;;4922362;29;20055;-83
2021/08/02 02:38:41;;;;;;;4.80;4.28;;;;;;;;;;4922030;29;20072;-83
2021/08/02 02:41:07;;;;;;;6.43;4.22;;;;;;;;;;4922228;29;20304;-82
2021/08/02 02:43:34;;;;;;;6.63;4.20;;;;;;;;;;4922667;29;20292;-82
2021/08/02 02:46:00;;;;;;;6.10;3.88;;;;;;;;;;4922214;29;20035;-82
2021/08/02 02:48:26;;;;;;;4.60;4.07;;;;;;;;;;4921962;29;20139;-82
2021/08/02 02:51:30;;;;;;;5.22;4.13;;;;;;;;;;4904938;29;20036;-81
2021/08/02 02:53:57;;;;;;;5.60;4.15;;;;;;;;;;4921968;29;20025;-81
2021/08/02 02:56:23;;;;;;;6.03;4.40;;;;;;;;;;4905371;29;20414;-85
2021/08/02 02:58:50;;;;;;;7.35;4.05;;;;;;;;;;4905163;29;20043;-82
2021/08/02 03:01:19;;;;;;;5.38;4.30;;;;;;;;;;4921961;29;20028;-82
2021/08/02 03:03:50;;;;;;;6.30;4.18;;;;;;;;;;4921242;29;20032;-82
2021/08/02 03:06:16;;;;;;;7.43;3.97;;;;;;;;;;4922141;29;20064;-82
2021/08/02 03:08:44;;;;;;;4.45;3.90;;;;;;;;;;4921953;29;20115;-82
2021/08/02 03:11:11;;;;;;;5.45;4.55;;;;;;;;;;4921769;29;20040;-82
2021/08/02 03:13:37;;;;;;;6.18;4.53;;;;;;;;;;4921702;29;20103;-81
2021/08/02 03:16:05;;;;;;;7.38;4.38;;;;;;;;;;4921716;29;20031;-81
2021/08/02 03:18:31;;;;;;;6.13;4.15;;;;;;;;;;4921195;29;20473;-82
2021/08/02 03:20:57;;;;;;;5.35;4.50;;;;;;;;;;4921542;29;20063;-82
2021/08/02 03:23:35;;;;;;;7.05;4.40;;;;;;;;;;4921506;29;20028;-81
2021/08/02 03:26:09;;;;;;;4.85;4.22;;;;;;;;;;4921573;29;20028;-83
2021/08/02 03:28:49;;;;;;;4.70;4.05;;;;;;;;;;4921568;29;20028;-84
2021/08/02 03:31:20;;;;;;;7.53;4.53;;;;;;;;;;4921588;29;20031;-84
2021/08/02 03:33:46;;;;;;;6.13;4.53;;;;;;;;;;4921761;29;20036;-83
2021/08/02 03:36:14;;;;;;;5.78;4.30;;;;;;;;;;4921611;29;20060;-83
2021/08/02 03:38:41;;;;;;;5.97;4.55;;;;;;;;;;4921447;29;20036;-83
2021/08/02 03:41:08;;;;;;;6.45;4.35;;;;;;;;;;4921473;29;20052;-83
2021/08/02 03:43:34;;;;;;;7.65;4.72;;;;;;;;;;4921387;29;20035;-83
2021/08/02 03:46:01;;;;;;;6.03;4.50;;;;;;;;;;4921170;29;20035;-83
2021/08/02 03:48:27;;;;;;;5.30;4.50;;;;;;;;;;4921315;29;20075;-84
2021/08/02 03:51:11;;;;;;;6.70;4.97;;;;;;;;;;4921351;29;20115;-84
2021/08/02 03:53:38;;;;;;;5.93;4.10;;;;;;;;;;4921167;29;20027;-83
2021/08/02 03:56:05;;;;;;;5.40;4.43;;;;;;;;;;4921148;29;20036;-83
2021/08/02 03:58:31;;;;;;;6.55;4.70;;;;;;;;;;4920901;29;20039;-83
2021/08/02 04:00:57;;;;;;;5.35;4.40;;;;;;;;;;4921197;29;20119;-83
2021/08/02 04:03:23;;;;;;;6.28;4.30;;;;;;;;;;4921257;29;20024;-83
2021/08/02 04:05:49;;;;;;;4.80;4.28;;;;;;;;;;4903781;29;20040;-81
2021/08/02 04:08:15;;;;;;;6.10;4.50;;;;;;;;;;4904074;29;20028;-81
2021/08/02 04:10:41;;;;;;;4.70;4.20;;;;;;;;;;4920788;29;20028;-81
2021/08/02 04:13:08;;;;;;;6.00;4.10;;;;;;;;;;4920680;29;20028;-81
2021/08/02 04:15:34;;;;;;;4.82;4.10;;;;;;;;;;4920926;29;20039;-81
2021/08/02 04:18:00;;;;;;;4.57;4.18;;;;;;;;;;4920418;29;20052;-81
2021/08/02 04:20:26;;;;;;;6.25;4.72;;;;;;;;;;4920817;29;20021;-83
2021/08/02 04:22:52;;;;;;;6.63;4.45;;;;;;;;;;4920868;29;20315;-83
2021/08/02 04:25:18;;;;;;;4.93;4.45;;;;;;;;;;4920869;29;20425;-83
2021/08/02 04:27:45;;;;;;;4.95;4.00;;;;;;;;;;4920743;29;20024;-81
2021/08/02 04:30:11;;;;;;;7.05;4.38;;;;;;;;;;4920640;29;20426;-81
2021/08/02 04:32:42;;;;;;;5.35;3.92;;;;;;;;;;4903838;29;20035;-82
2021/08/02 04:35:08;;;;;;;4.60;4.18;;;;;;;;;;4920551;29;20072;-82
2021/08/02 04:37:34;;;;;;;5.03;4.53;;;;;;;;;;4920663;29;20032;-82
2021/08/02 04:40:00;;;;;;;7.00;5.25;;;;;;;;;;4920558;29;20021;-81
2021/08/02 04:42:26;;;;;;;4.22;3.83;;;;;;;;;;4903682;29;20039;-81
2021/08/02 04:44:52;;;;;;;8.48;4.25;;;;;;;;;;4920630;29;20028;-81
2021/08/02 04:47:18;;;;;;;4.32;3.75;;;;;;;;;;4920660;29;20050;-82
2021/08/02 04:49:45;;;;;;;6.55;5.03;;;;;;;;;;4903925;29;20036;-82
2021/08/02 04:52:11;;;;;;;8.93;3.90;;;;;;;;;;4920629;29;20032;-82
2021/08/02 04:54:37;;;;;;;4.82;3.70;;;;;;;;;;4920524;29;20082;-81
2021/08/02 04:57:03;;;;;;;4.60;3.88;;;;;;;;;;4903688;29;20118;-81
2021/08/02 04:59:29;;;;;;;6.97;5.10;;;;;;;;;;4920497;29;20028;-82
2021/08/02 05:01:55;;;;;;;4.50;4.10;;;;;;;;;;4921193;29;20028;-82
2021/08/02 05:04:21;;;;;;;5.57;3.78;;;;;;;;;;4904337;29;20065;-82
2021/08/02 05:06:47;;;;;;;6.03;4.00;;;;;;;;;;4944036;29;20106;-83
2021/08/02 05:09:13;;;;;;;4.93;3.92;;;;;;;;;;4939606;29;20027;-83
2021/08/02 05:11:40;;;;;;;7.32;3.75;;;;;;;;;;4949268;29;20122;-82
2021/08/02 05:14:06;;;;;;;4.63;3.63;;;;;;;;;;4939649;29;20032;-83
2021/08/02 05:16:32;;;;;;;4.07;3.67;;;;;;;;;;4922283;29;20168;-82
2021/08/02 05:18:58;;;;;;;5.13;3.65;;;;;;;;;;4939471;29;20338;-83
2021/08/02 05:21:24;;;;;;;4.47;3.30;;;;;;;;;;4939447;29;20032;-84
2021/08/02 05:23:50;;;;;;;4.13;3.70;;;;;;;;;;4939539;29;20027;-82
2021/08/02 05:26:16;;;;;;;5.57;3.58;;;;;;;;;;4940934;29;20019;-83
2021/08/02 05:28:42;;;;;;;5.32;3.20;;;;;;;;;;4943026;29;20102;-84
2021/08/02 05:31:08;;;;;;;5.05;3.60;;;;;;;;;;4942687;29;20035;-83
2021/08/02 05:33:34;;;;;;;4.40;3.20;;;;;;;;;;4942388;29;20469;-84
2021/08/02 05:36:03;;;;;;;6.03;3.85;;;;;;;;;;4942885;29;20031;-84
2021/08/02 05:38:29;;;;;;;4.70;3.35;;;;;;;;;;4942807;29;20046;-85
2021/08/02 05:40:56;;;;;;;5.05;3.40;;;;;;;;;;4925340;29;20070;-85
2021/08/02 05:43:22;;;;;;;3.28;2.97;;;;;;;;;;4925716;29;20026;-84
2021/08/02 05:45:48;;;;;;;4.45;3.42;;;;;;;;;;4942750;29;20024;-84
2021/08/02 05:48:14;;;;;;;5.15;3.90;;;;;;;;;;4942762;29;20044;-85
2021/08/02 05:50:40;;;;;;;7.43;5.15;;;;;;;;;;4942227;29;20043;-84
2021/08/02 05:53:06;;;;;;;5.78;3.83;;;;;;;;;;4942601;29;20028;-84
2021/08/02 05:55:32;;;;;;;5.88;3.55;;;;;;;;;;4942454;29;20024;-84
2021/08/02 05:57:58;;;;;;;4.43;3.50;;;;;;;;;;4925596;29;20327;-84
2021/08/02 06:00:25;;;;;;;6.28;3.67;;;;;;;;;;4925482;29;20070;-84
2021/08/02 06:02:51;;;;;;;4.80;3.40;;;;;;;;;;4942426;29;20039;-85
2021/08/02 06:05:17;;;;;;;7.60;3.90;;;;;;;;;;4925291;29;20023;-84
2021/08/02 06:07:44;;;;;;;6.05;3.22;;;;;;;;;;4942336;29;20304;-82
2021/08/02 06:10:11;;;;;;;5.30;3.40;;;;;;;;;;4941937;29;20406;-83
2021/08/02 06:12:37;;;;;;;6.75;2.92;;;;;;;;;;4941907;29;20028;-83
2021/08/02 06:15:03;;;;;;;4.25;2.92;;;;;;;;;;4925106;29;20026;-83
2021/08/02 06:17:29;;;;;;;4.13;3.22;;;;;;;;;;4924060;29;20131;-83
2021/08/02 06:19:55;;;;;;;6.03;2.78;;;;;;;;;;4941743;29;20031;-83
2021/08/02 06:22:22;;;;;;;3.35;2.83;;;;;;;;;;4941989;29;20024;-84
2021/08/02 06:24:48;;;;;;;3.42;2.80;;;;;;;;;;4924805;29;20055;-83
2021/08/02 06:27:14;;;;;;;5.25;3.08;;;;;;;;;;4934393;29;20106;-83
2021/08/02 06:29:40;;;;;;;5.50;2.80;;;;;;;;;;4940317;29;20035;-83
2021/08/02 06:32:07;;;;;;;4.38;2.90;;;;;;;;;;4941904;29;20402;-83
2021/08/02 06:34:33;;;;;;;4.55;3.03;;;;;;;;;;4939857;29;20035;-82
2021/08/02 06:36:59;;;;;;;4.20;2.83;;;;;;;;;;4941322;29;20028;-82
2021/08/02 06:39:25;;;;;;;5.45;2.35;;;;;;;;;;4940310;29;20024;-80
2021/08/02 06:41:51;;;;;;;3.53;2.58;;;;;;;;;;4937060;29;20086;-80
2021/08/02 06:44:17;;;;;;;5.10;3.33;;;;;;;;;;4923614;29;20204;-83
2021/08/02 06:46:43;;;;;;;3.78;2.50;;;;;;;;;;4939197;29;20035;-83
2021/08/02 06:49:09;;;;;;;5.95;2.28;;;;;;;;;;4941473;29;20042;-83
2021/08/02 06:51:35;;;;;;;3.17;2.60;;;;;;;;;;4924309;29;20058;-82
2021/08/02 06:54:01;;;;;;;3.03;2.10;;;;;;;;;;4941089;29;20083;-82
2021/08/02 06:56:27;;;;;;;3.05;2.35;;;;;;;;;;4940995;29;20031;-82
2021/08/02 06:58:53;;;;;;;3.95;2.00;;;;;;;;;;4940776;29;20399;-82
2021/08/02 07:01:19;;;;;;;2.97;2.13;;;;;;;;;;4940904;29;20030;-82
2021/08/02 07:03:45;;;;;;;3.45;2.50;;;;;;;;;;4941043;29;20024;-82
2021/08/02 07:06:12;;;;;;;4.15;2.20;;;;;;;;;;4940967;29;20023;-82
2021/08/02 07:08:38;;;;;;;2.63;2.33;;;;;;;;;;4924184;29;20367;-83
2021/08/02 07:11:05;;;;;;;5.22;2.35;;;;;;;;;;4940819;29;20035;-82
2021/08/02 07:13:31;;;;;;;5.00;2.28;;;;;;;;;;4940683;29;20099;-82
2021/08/02 07:16:00;;;;;;;2.50;2.00;;;;;;;;;;4941039;29;20366;-82
2021/08/02 07:18:26;;;;;;;3.17;2.20;;;;;;;;;;4940444;29;20055;-82
2021/08/02 07:20:52;;;;;;;5.43;2.40;;;;;;;;;;4923635;29;20028;-82
2021/08/02 07:23:18;;;;;;;2.53;2.15;;;;;;;;;;4923429;29;20036;-82
2021/08/02 07:25:44;;;;;;;2.75;2.00;;;;;;;;;;4923745;29;20411;-82
2021/08/02 07:28:10;;;;;;;2.65;2.42;;;;;;;;;;4940187;29;20329;-83
2021/08/02 07:30:37;;;;;;;3.60;2.30;;;;;;;;;;4940399;29;20114;-82
2021/08/02 07:33:03;;;;;;;3.88;2.20;;;;;;;;;;4923597;29;20122;-83
2021/08/02 07:35:29;;;;;;;4.85;2.38;;;;;;;;;;4940457;29;20481;-82
2021/08/02 07:37:55;;;;;;;2.90;2.20;;;;;;;;;;4940433;29;20038;-83
2021/08/02 07:40:21;;;;;;;3.20;2.60;;;;;;;;;;4940569;29;20110;-83
2021/08/02 07:42:47;;;;;;;2.50;2.30;;;;;;;;;;4940301;29;20032;-83
2021/08/02 07:45:14;;;;;;;2.65;2.42;;;;;;;;;;4940125;29;20027;-82
2021/08/02 07:47:40;;;;;;;4.63;2.80;;;;;;;;;;4940441;29;20047;-83
2021/08/02 07:50:06;;;;;;;5.20;3.30;;;;;;;;;;4939993;29;20034;-82
2021/08/02 07:52:33;;;;;;;4.90;2.58;;;;;;;;;;4922852;29;20035;-83
2021/08/02 07:55:01;;;;;;;3.70;2.60;;;;;;;;;;4940182;29;20046;-83
2021/08/02 07:57:27;;;;;;;4.78;2.70;;;;;;;;;;4940131;29;20527;-82
2021/08/02 07:59:54;;;;;;;4.05;2.50;;;;;;;;;;4939617;29;20304;-83
2021/08/02 08:02:20;;;;;;;5.88;2.60;;;;;;;;;;4940176;29;20395;-83
2021/08/02 08:04:46;;;;;;;3.95;2.83;;;;;;;;;;4922977;29;20322;-82
2021/08/02 08:07:12;;;;;;;6.70;3.40;;;;;;;;;;4939632;29;20410;-82
2021/08/02 08:09:39;;;;;;;3.92;2.58;;;;;;;;;;4939767;29;20317;-82
2021/08/02 08:12:05;;;;;;;3.95;2.80;;;;;;;;;;4939990;29;20028;-82
2021/08/02 08:14:31;;;;;;;4.35;2.80;;;;;;;;;;4939853;29;20027;-83
2021/08/02 08:16:57;;;;;;;4.90;2.58;;;;;;;;;;4939550;29;20055;-82
2021/08/02 08:19:23;;;;;;;3.20;2.83;;;;;;;;;;4939669;29;20032;-82
2021/08/02 08:21:49;;;;;;;3.75;2.58;;;;;;;;;;4939749;29;20115;-83
2021/08/02 08:24:15;;;;;;;7.90;2.83;;;;;;;;;;4939866;29;20024;-82
2021/08/02 08:26:41;;;;;;;6.55;2.30;;;;;;;;;;4922447;29;20036;-82
2021/08/02 08:29:08;;;;;;;3.55;2.70;;;;;;;;;;4939669;29;20414;-82
2021/08/02 08:31:34;;;;;;;3.60;2.63;;;;;;;;;;4939766;29;20039;-82
2021/08/02 08:34:00;;;;;;;4.68;2.75;;;;;;;;;;4939755;29;20024;-82
2021/08/02 08:36:26;;;;;;;4.57;2.35;;;;;;;;;;4922180;29;20040;-82
2021/08/02 08:38:52;;;;;;;5.22;2.60;;;;;;;;;;4939588;29;20035;-82
2021/08/02 08:41:22;;;;;;;9.38;5.35;;;;;;;;;;4939672;29;20024;-82
2021/08/02 08:43:54;;;;;;;7.43;6.55;;;;;;;;;;4939554;29;20028;-81
2021/08/02 08:46:24;;;;;;;27.60;23.98;;;;;;;;;;4939646;29;20019;-83
2021/08/02 08:48:51;;;;;;;11.88;10.15;;;;;;;;;;4939831;29;20032;-82
2021/08/02 08:51:17;;;;;;;5.25;4.13;;;;;;;;;;4922714;29;20058;-82
2021/08/02 08:53:44;;;;;;;2.83;2.20;;;;;;;;;;4922646;29;20352;-83
2021/08/02 08:56:11;;;;;;;3.15;2.45;;;;;;;;;;4939551;29;20099;-82
2021/08/02 08:58:37;;;;;;;3.78;2.15;;;;;;;;;;4939393;29;20127;-82
2021/08/02 09:01:04;;;;;;;2.58;2.20;;;;;;;;;;4940969;29;20043;-82
2021/08/02 09:03:31;;;;;;;3.50;2.03;;;;;;;;;;4943228;29;20044;-83
2021/08/02 09:06:04;;;;;;;3.63;2.17;;;;;;;;;;4943113;29;20106;-83
2021/08/02 09:08:30;;;;;;;8.25;2.20;;;;;;;;;;4942968;29;20042;-83
2021/08/02 09:11:00;;;;;;;2.55;2.25;;;;;;;;;;4942956;29;20111;-82
2021/08/02 09:13:30;;;;;;;2.25;2.00;;;;;;;;;;4943037;29;20063;-82
2021/08/02 09:15:57;;;;;;;3.70;2.10;;;;;;;;;;4943341;29;20039;-81
2021/08/02 09:18:23;;;;;;;3.55;2.00;;;;;;;;;;4926121;29;20446;-84
2021/08/02 09:21:03;;;;;;;3.45;2.30;;;;;;;;;;4925964;29;20326;-83
2021/08/02 09:23:29;;;;;;;2.00;1.50;;;;;;;;;;4942753;29;20030;-83
2021/08/02 09:25:59;;;;;;;3.00;1.83;;;;;;;;;;4942874;29;20055;-83
2021/08/02 09:28:26;;;;;;;5.88;1.92;;;;;;;;;;4925770;29;20036;-82
2021/08/02 09:30:54;;;;;;;2.00;1.70;;;;;;;;;;4925746;29;20070;-82
2021/08/02 09:33:20;;;;;;;2.30;1.77;;;;;;;;;;4942626;29;20119;-82
2021/08/02 09:35:51;;;;;;;3.95;2.00;;;;;;;;;;4942609;29;20063;-81
2021/08/02 09:38:19;;;;;;;3.10;2.00;;;;;;;;;;4941861;29;20079;-81
2021/08/02 09:40:47;;;;;;;2.05;1.65;;;;;;;;;;4924795;29;20266;-81
2021/08/02 09:43:14;;;;;;;3.90;2.00;;;;;;;;;;4925219;29;20028;-81
2021/08/02 09:45:40;;;;;;;4.97;2.20;;;;;;;;;;4942503;29;20020;-81
2021/08/02 09:48:07;;;;;;;2.67;1.60;;;;;;;;;;4942286;29;20036;-82
2021/08/02 09:50:33;;;;;;;3.72;2.00;;;;;;;;;;4925295;29;20413;-82
2021/08/02 09:52:59;;;;;;;3.33;1.70;;;;;;;;;;4942160;29;20415;-81
2021/08/02 09:55:26;;;;;;;3.47;1.83;;;;;;;;;;4942427;29;20031;-81
2021/08/02 09:57:52;;;;;;;3.88;1.77;;;;;;;;;;4941973;29;20030;-81
2021/08/02 10:00:19;;;;;;;3.90;1.70;;;;;;;;;;4925156;29;20414;-81
2021/08/02 10:02:47;;;;;;;4.13;1.70;;;;;;;;;;4941757;29;20149;-81
2021/08/02 10:05:15;;;;;;;2.40;1.60;;;;;;;;;;4941991;29;20031;-82
2021/08/02 10:07:42;;;;;;;2.03;1.50;;;;;;;;;;4941929;29;20035;-81
2021/08/02 10:10:08;;;;;;;2.15;1.67;;;;;;;;;;4942125;29;20023;-81
2021/08/02 10:12:42;;;;;;;3.50;1.98;;;;;;;;;;4941760;29;20028;-82
2021/08/02 10:15:11;;;;;;;1.85;1.50;;;;;;;;;;4941944;29;20370;-81
2021/08/02 10:29:25;;;;;;;2.83;1.50;;;;;;;;;;5135772;27;20351;-82
2021/08/02 10:31:55;;;;;;;3.08;1.58;;;;;;;;;;5135493;28;20023;-82
2021/08/02 10:34:22;;;;;;;2.30;1.50;;;;;;;;;;5116620;28;20028;-83
2021/08/02 10:37:06;;;;;;;2.83;1.75;;;;;;;;;;5135289;28;20020;-82
2021/08/02 10:39:34;;;;;;;2.63;1.55;;;;;;;;;;5135420;28;20036;-82
2021/08/02 10:42:10;;;;;;;2.30;1.40;;;;;;;;;;5135336;28;20064;-82
2021/08/02 10:44:36;;;;;;;1.60;1.40;;;;;;;;;;5135251;28;20019;-82
2021/08/02 10:47:05;;;;;;;2.13;1.20;;;;;;;;;;5134759;28;20065;-83
2021/08/02 10:49:31;;;;;;;1.30;1.20;;;;;;;;;;5135024;28;20030;-82
2021/08/02 10:51:57;;;;;;;3.75;1.55;;;;;;;;;;5134974;28;20027;-82
2021/08/02 10:54:24;;;;;;;3.30;1.48;;;;;;;;;;5134812;28;20474;-82
2021/08/02 10:56:51;;;;;;;2.67;1.45;;;;;;;;;;5116287;28;20047;-82
2021/08/02 10:59:18;;;;;;;3.65;1.50;;;;;;;;;;5116752;28;20359;-82
2021/08/02 11:01:47;;;;;;;4.78;1.73;;;;;;;;;;5116226;28;20156;-82
2021/08/02 11:04:14;;;;;;;2.78;2.10;;;;;;;;;;5134768;28;20035;-82
2021/08/02 11:06:40;;;;;;;2.40;1.58;;;;;;;;;;5134938;28;20427;-82
2021/08/02 11:09:06;;;;;;;3.33;1.70;;;;;;;;;;5116030;28;20100;-83
2021/08/02 11:11:34;;;;;;;2.30;1.45;;;;;;;;;;5134922;28;20019;-83
2021/08/02 11:14:10;;;;;;;3.70;1.83;;;;;;;;;;5134588;28;20020;-83
2021/08/02 11:16:43;;;;;;;3.45;1.65;;;;;;;;;;5134745;28;20022;-83
2021/08/02 11:19:16;;;;;;;5.78;1.80;;;;;;;;;;5134402;28;20413;-83
2021/08/02 11:21:42;;;;;;;5.18;1.60;;;;;;;;;;5134501;28;20477;-83
2021/08/02 11:24:09;;;;;;;2.42;1.40;;;;;;;;;;5134567;28;20023;-82
2021/08/02 11:26:48;;;;;;;2.35;1.40;;;;;;;;;;5134284;28;20061;-83
2021/08/02 11:29:18;;;;;;;2.05;1.23;;;;;;;;;;5125870;28;20044;-83
2021/08/02 11:31:52;;;;;;;3.08;1.50;;;;;;;;;;5119177;28;20057;-83
2021/08/02 11:34:19;;;;;;;1.80;1.27;;;;;;;;;;5120508;28;20020;-83
2021/08/02 11:36:45;;;;;;;1.77;1.38;;;;;;;;;;5120291;28;20060;-82
2021/08/02 11:39:19;;;;;;;3.10;1.40;;;;;;;;;;5120307;28;20472;-83
2021/08/02 11:41:46;;;;;;;2.25;1.52;;;;;;;;;;5120205;28;20481;-83
2021/08/02 11:44:12;;;;;;;3.08;1.33;;;;;;;;;;5120339;28;20030;-82
2021/08/02 11:46:38;;;;;;;1.67;1.33;;;;;;;;;;5120230;28;20098;-83
2021/08/02 11:49:04;;;;;;;3.10;1.58;;;;;;;;;;5120320;28;20029;-83
2021/08/02 11:51:30;;;;;;;2.58;1.40;;;;;;;;;;5120088;28;20020;-83
2021/08/02 11:53:58;;;;;;;2.83;1.50;;;;;;;;;;5120075;28;20405;-83
2021/08/02 11:56:31;;;;;;;2.55;1.50;;;;;;;;;;5120124;28;20054;-83
2021/08/02 11:58:57;;;;;;;2.22;1.10;;;;;;;;;;5119907;28;20031;-82
2021/08/02 12:01:23;;;;;;;6.30;1.80;;;;;;;;;;5119155;28;20107;-83
2021/08/02 12:03:56;;;;;;;2.20;1.40;;;;;;;;;;5118599;28;20066;-83
2021/08/02 12:06:22;;;;;;;3.17;1.38;;;;;;;;;;5120078;28;20317;-82
2021/08/02 12:08:53;;;;;;;2.75;1.42;;;;;;;;;;5118367;28;20031;-83
2021/08/02 12:11:19;;;;;;;2.38;1.50;;;;;;;;;;5119865;28;20024;-83
2021/08/02 12:13:49;;;;;;;3.00;1.40;;;;;;;;;;5119794;28;20051;-83
2021/08/02 12:16:26;;;;;;;2.72;1.50;;;;;;;;;;5118641;28;20028;-82
2021/08/02 12:19:01;;;;;;;1.88;1.30;;;;;;;;;;5119465;28;20030;-82
2021/08/02 12:21:29;;;;;;;5.07;2.22;;;;;;;;;;5118152;28;20055;-82
2021/08/02 12:24:07;;;;;;;3.10;1.45;;;;;;;;;;5119782;28;20312;-82
2021/08/02 12:26:33;;;;;;;4.90;2.42;;;;;;;;;;5118080;28;20032;-80
2021/08/02 12:28:59;;;;;;;2.88;1.50;;;;;;;;;;5118015;28;20471;-82
2021/08/02 12:31:27;;;;;;;2.75;2.00;;;;;;;;;;5119467;28;20080;-81
2021/08/02 12:33:53;;;;;;;2.72;1.58;;;;;;;;;;5118527;28;20024;-82
2021/08/02 12:36:19;;;;;;;1.85;1.55;;;;;;;;;;5119236;28;20030;-81
2021/08/02 12:38:46;;;;;;;1.60;1.33;;;;;;;;;;5119211;28;20023;-82
2021/08/02 12:41:13;;;;;;;2.17;1.60;;;;;;;;;;5118068;28;20069;-82
2021/08/02 12:43:39;;;;;;;3.30;1.75;;;;;;;;;;5118868;28;20026;-82
2021/08/02 12:46:05;;;;;;;3.83;1.95;;;;;;;;;;5119025;28;20443;-82
2021/08/02 12:48:31;;;;;;;1.90;1.52;;;;;;;;;;5119119;28;20023;-82
2021/08/02 12:50:57;;;;;;;2.60;1.42;;;;;;;;;;5119043;28;20023;-81
2021/08/02 12:53:24;;;;;;;2.30;1.60;;;;;;;;;;5118874;28;20031;-82
2021/08/02 12:55:50;;;;;;;3.30;1.60;;;;;;;;;;5118731;28;20027;-82
2021/08/02 12:58:16;;;;;;;3.70;1.80;;;;;;;;;;5119045;28;20024;-82
2021/08/02 13:00:43;;;;;;;4.47;1.40;;;;;;;;;;5117659;28;20023;-82
2021/08/02 13:03:09;;;;;;;5.65;1.63;;;;;;;;;;5118887;28;20044;-82
2021/08/02 13:05:35;;;;;;;3.55;1.65;;;;;;;;;;5118666;28;20129;-82
2021/08/02 13:08:01;;;;;;;5.05;1.60;;;;;;;;;;5116415;28;20051;-81
2021/08/02 13:10:28;;;;;;;1.98;1.40;;;;;;;;;;5117007;28;20084;-81
2021/08/02 13:12:54;;;;;;;3.58;1.52;;;;;;;;;;5118553;28;20317;-82
2021/08/02 13:15:21;;;;;;;1.63;1.30;;;;;;;;;;5118124;28;20028;-82
2021/08/02 13:17:47;;;;;;;2.00;1.67;;;;;;;;;;5117968;28;20028;-82
2021/08/02 13:20:13;;;;;;;3.13;1.45;;;;;;;;;;5117016;28;20026;-82
2021/08/02 13:23:01;;;;;;;2.40;1.50;;;;;;;;;;5118107;28;20099;-82
2021/08/02 13:28:12;;;;;;;3.47;1.30;;;;;;;;;;5117819;28;20121;-81
2021/08/02 13:30:41;;;;;;;3.70;1.70;;;;;;;;;;5117936;28;20024;-81
2021/08/02 13:33:08;;;;;;;1.85;1.38;;;;;;;;;;5117749;28;20043;-81
2021/08/02 13:35:34;;;;;;;2.90;1.27;;;;;;;;;;5116380;28;20358;-82
2021/08/02 13:38:00;;;;;;;4.60;1.90;;;;;;;;;;5136258;27;20028;-81
2021/08/02 13:40:26;;;;;;;7.20;1.50;;;;;;;;;;5138053;27;20060;-81
2021/08/02 13:42:52;;;;;;;2.15;1.38;;;;;;;;;;5138378;27;20062;-82
2021/08/02 13:45:18;;;;;;;2.15;1.58;;;;;;;;;;5138192;27;20023;-84
2021/08/02 13:47:44;;;;;;;4.35;1.50;;;;;;;;;;5138117;27;20408;-81
2021/08/02 13:50:10;;;;;;;10.18;1.83;;;;;;;;;;5138327;27;20072;-81
2021/08/02 13:52:37;;;;;;;3.17;1.40;;;;;;;;;;5137548;27;20016;-81
2021/08/02 13:55:03;;;;;;;4.60;1.63;;;;;;;;;;5138443;27;20049;-81
2021/08/02 13:57:29;;;;;;;2.53;1.30;;;;;;;;;;5138163;27;20134;-82
2021/08/02 13:59:55;;;;;;;3.50;1.40;;;;;;;;;;5138330;27;20019;-81
2021/08/02 14:02:21;;;;;;;6.78;1.60;;;;;;;;;;5138006;27;20351;-82
2021/08/02 14:04:48;;;;;;;4.70;1.60;;;;;;;;;;5138108;27;20105;-82
2021/08/02 14:07:14;;;;;;;2.80;1.50;;;;;;;;;;5137790;27;20028;-82
2021/08/02 14:09:40;;;;;;;3.20;1.02;;;;;;;;;;5137926;27;20400;-81
2021/08/02 14:12:07;;;;;;;3.28;1.50;;;;;;;;;;5137980;27;20038;-81
2021/08/02 14:14:37;;;;;;;2.50;1.70;;;;;;;;;;5137922;27;20023;-82
2021/08/02 14:17:06;;;;;;;4.27;1.30;;;;;;;;;;5137640;28;20126;-82
2021/08/02 14:19:35;;;;;;;6.68;1.40;;;;;;;;;;5137794;27;20328;-82
2021/08/02 14:22:03;;;;;;;2.10;1.20;;;;;;;;;;5137865;28;20016;-82
2021/08/02 14:24:29;;;;;;;5.13;1.42;;;;;;;;;;5137629;28;20019;-81
2021/08/02 14:26:57;;;;;;;6.97;1.80;;;;;;;;;;5138047;28;20050;-81
2021/08/02 14:29:23;;;;;;;3.20;1.40;;;;;;;;;;5137884;28;20084;-81
2021/08/02 14:31:49;;;;;;;3.42;1.10;;;;;;;;;;5137869;28;20015;-81
2021/08/02 14:34:16;;;;;;;2.78;1.70;;;;;;;;;;5137516;28;20019;-81
2021/08/02 14:36:42;;;;;;;5.45;1.50;;;;;;;;;;5137258;28;20364;-81
2021/08/02 14:39:09;;;;;;;3.20;1.27;;;;;;;;;;5137934;28;20019;-81
2021/08/02 14:41:45;;;;;;;2.85;1.17;;;;;;;;;;5136356;28;20125;-81
2021/08/02 14:44:12;;;;;;;3.75;1.45;;;;;;;;;;5136474;28;20096;-80
2021/08/02 14:46:38;;;;;;;1.10;1.00;;;;;;;;;;5137488;28;20068;-81
2021/08/02 14:49:06;;;;;;;2.00;1.08;;;;;;;;;;5126864;28;20435;-81
2021/08/02 14:51:37;;;;;;;4.78;1.23;;;;;;;;;;5115848;28;20038;-81
2021/08/02 14:54:04;;;;;;;2.25;1.52;;;;;;;;;;5115950;28;20028;-81
2021/08/02 14:56:31;;;;;;;2.97;1.35;;;;;;;;;;5117082;28;20031;-81
2021/08/02 14:58:58;;;;;;;4.30;1.50;;;;;;;;;;5116863;28;20031;-81
2021/08/02 15:01:24;;;;;;;2.10;1.25;;;;;;;;;;5116919;28;20023;-82